Terminal Aerodrome Forecast
Issued by NWS

Home | Current Version | Previous Version | Text Only | Print | Product List | Glossary Off
Versions: 1 2 3 4 5 6 7 8 9 10 11 12

000
FTUS42 KMHX 150521
TAFOAJ
TAF
KOAJ 150521Z 1506/1606 VRB03KT P6SM BKN200
     FM151600 25010KT P6SM BKN200
     FM152300 29006KT P6SM BKN150
      AMD LTD TO CLD VIS AND WIND=

USA.gov is the U.S. government's official web portal to all federal, state and local government web resources and services.